Time;durP1;ratioP1;P1;durP2;ratioP2;P2;SDS_P1;SDS_P2;PMS_P1;PMS_P2;Temp;Humidity;BMP_temperature;BMP_pressure;BME280_temperature;BME280_humidity;BME280_pressure;Samples;Min_cycle;Max_cycle;Signal;HPM_P1;HPM_P2
2023/03/22 00:01:52;;;;;;;;;;;10.40;86.20;;;;;;5135000;28;19915;-71
2023/03/22 00:04:18;;;;;;;;;;;10.40;86.20;;;;;;5134975;28;19922;-71
2023/03/22 00:06:44;;;;;;;;;;;10.40;86.30;;;;;;5134923;28;19916;-71
2023/03/22 00:09:09;;;;;;;;;;;10.30;86.30;;;;;;5134903;28;20270;-71
2023/03/22 00:11:35;;;;;;;;;;;10.30;86.40;;;;;;5134870;28;20300;-71
2023/03/22 00:14:00;;;;;;;;;;;10.30;86.50;;;;;;5134870;28;20357;-71
2023/03/22 00:16:26;;;;;;;;;;;10.20;86.40;;;;;;5134698;28;20394;-71
2023/03/22 00:18:51;;;;;;;;;;;10.30;86.50;;;;;;5115985;28;19924;-71
2023/03/22 00:21:17;;;;;;;;;;;10.10;86.40;;;;;;5134660;28;20422;-71
2023/03/22 00:23:43;;;;;;;;;;;10.20;86.50;;;;;;5134521;28;19921;-70
2023/03/22 00:26:09;;;;;;;;;;;10.20;86.50;;;;;;5134523;28;19923;-71
2023/03/22 00:28:35;;;;;;;;;;;10.10;86.50;;;;;;5134387;28;19915;-71
2023/03/22 00:31:01;;;;;;;;;;;10.30;86.60;;;;;;5134525;28;19965;-71
2023/03/22 00:33:27;;;;;;;;;;;10.20;86.50;;;;;;5134409;28;20018;-71
2023/03/22 00:35:56;;;;;;;;;;;10.20;86.50;;;;;;5134420;28;20372;-71
2023/03/22 00:38:21;;;;;;;;;;;10.20;86.50;;;;;;5135188;28;19915;-71
2023/03/22 00:40:47;;;;;;;;;;;10.10;86.40;;;;;;5135138;28;19939;-71
2023/03/22 00:43:13;;;;;;;;;;;10.10;86.50;;;;;;5134472;28;20384;-71
2023/03/22 00:45:39;;;;;;;;;;;10.20;86.50;;;;;;5134284;28;19915;-70
2023/03/22 00:48:06;;;;;;;;;;;10.20;86.40;;;;;;5134721;28;19960;-71
2023/03/22 00:50:31;;;;;;;;;;;10.10;86.40;;;;;;5134346;28;19916;-71
2023/03/22 00:52:57;;;;;;;;;;;10.00;86.30;;;;;;5134234;28;20292;-71
2023/03/22 00:55:22;;;;;;;;;;;10.10;86.30;;;;;;5134281;28;20356;-71
2023/03/22 00:57:48;;;;;;;;;;;10.10;86.30;;;;;;5134041;28;19920;-71
2023/03/22 01:00:15;;;;;;;;;;;10.20;86.30;;;;;;5132755;27;20009;-71
2023/03/22 01:02:41;;;;;;;;;;;10.10;86.20;;;;;;5133803;28;19922;-71
2023/03/22 01:05:08;;;;;;;;;;;10.10;86.20;;;;;;5113276;28;19915;-71
2023/03/22 01:07:37;;;;;;;;;;;10.10;86.20;;;;;;5133659;28;19923;-71
2023/03/22 01:10:03;;;;;;;;;;;10.10;86.20;;;;;;5133527;28;19994;-71
2023/03/22 01:12:29;;;;;;;;;;;10.10;86.20;;;;;;5133707;28;19915;-71
2023/03/22 01:14:58;;;;;;;;;;;10.00;86.20;;;;;;5133506;28;19997;-71
2023/03/22 01:17:24;;;;;;;;;;;10.10;86.30;;;;;;5133339;28;19926;-71
2023/03/22 01:19:49;;;;;;;;;;;10.00;86.40;;;;;;5133429;28;20292;-71
2023/03/22 01:22:15;;;;;;;;;;;9.90;86.30;;;;;;5133895;28;20006;-71
2023/03/22 01:24:40;;;;;;;;;;;10.00;86.40;;;;;;5115090;28;19915;-71
2023/03/22 01:27:06;;;;;;;;;;;10.00;86.40;;;;;;5097344;28;19926;-71
2023/03/22 01:29:32;;;;;;;;;;;10.00;86.50;;;;;;5133518;28;20002;-71
2023/03/22 01:31:57;;;;;;;;;;;9.90;86.40;;;;;;5133436;28;19915;-71
2023/03/22 01:34:23;;;;;;;;;;;10.00;86.50;;;;;;5133356;28;20360;-71
2023/03/22 01:36:49;;;;;;;;;;;10.00;86.40;;;;;;5133240;28;19920;-71
2023/03/22 01:39:15;;;;;;;;;;;10.00;86.40;;;;;;5133323;28;20380;-70
2023/03/22 01:41:41;;;;;;;;;;;9.90;86.30;;;;;;5114177;28;19977;-71
2023/03/22 01:44:09;;;;;;;;;;;10.00;86.40;;;;;;5133287;28;19915;-71
2023/03/22 01:46:35;;;;;;;;;;;10.00;86.30;;;;;;5133100;28;19915;-71
2023/03/22 01:49:01;;;;;;;;;;;10.00;86.20;;;;;;5114779;28;20417;-71
2023/03/22 01:51:27;;;;;;;;;;;10.00;86.20;;;;;;5113943;28;20363;-71
2023/03/22 01:53:55;;;;;;;;;;;10.00;86.20;;;;;;5132960;28;19916;-70
2023/03/22 01:56:22;;;;;;;;;;;9.90;86.10;;;;;;5114480;28;19919;-71
2023/03/22 01:58:49;;;;;;;;;;;10.00;86.20;;;;;;5114757;28;19915;-71
2023/03/22 02:01:14;;;;;;;;;;;10.10;86.20;;;;;;5113758;28;19923;-71
2023/03/22 02:03:57;;;;;;;;;;;10.10;86.10;;;;;;5113265;28;19920;-71
2023/03/22 02:06:24;;;;;;;;;;;10.10;86.00;;;;;;5112806;28;19923;-71
2023/03/22 02:08:51;;;;;;;;;;;10.10;85.90;;;;;;5132827;28;19915;-71
2023/03/22 02:11:22;;;;;;;;;;;10.10;85.90;;;;;;5133885;27;20320;-71
2023/03/22 02:14:07;;;;;;;;;;;10.10;85.90;;;;;;5136363;28;19931;-71
2023/03/22 02:16:53;;;;;;;;;;;10.10;85.80;;;;;;5136257;28;19928;-71
2023/03/22 02:19:31;;;;;;;;;;;10.10;85.90;;;;;;5119869;28;19923;-71
2023/03/22 02:22:13;;;;;;;;;;;10.20;85.90;;;;;;5136436;28;19923;-71
2023/03/22 02:24:58;;;;;;;;;;;10.20;85.90;;;;;;5118024;28;19922;-71
2023/03/22 02:27:37;;;;;;;;;;;10.20;85.80;;;;;;5136723;28;19916;-71
2023/03/22 02:30:10;;;;;;;;;;;10.30;85.80;;;;;;5133954;28;20380;-71
2023/03/22 02:32:47;;;;;;;;;;;10.30;85.60;;;;;;5136244;28;19923;-71
2023/03/22 02:35:27;;;;;;;;;;;10.30;85.70;;;;;;5136073;28;19947;-71
2023/03/22 02:38:05;;;;;;;;;;;10.30;85.70;;;;;;5135868;28;19927;-71
2023/03/22 02:40:32;;;;;;;;;;;10.40;85.70;;;;;;5136100;28;19915;-71
2023/03/22 02:43:10;;;;;;;;;;;10.40;85.60;;;;;;5135850;28;20284;-71
2023/03/22 02:45:40;;;;;;;;;;;10.40;85.60;;;;;;5116597;28;20349;-71
2023/03/22 02:48:11;;;;;;;;;;;10.50;85.50;;;;;;5135992;28;20421;-71
2023/03/22 02:50:39;;;;;;;;;;;10.50;85.40;;;;;;5135870;28;19915;-71
2023/03/22 02:53:12;;;;;;;;;;;10.60;85.40;;;;;;5135783;28;19922;-71
2023/03/22 02:55:41;;;;;;;;;;;10.60;85.20;;;;;;5135642;28;19961;-71
2023/03/22 02:58:12;;;;;;;;;;;10.70;85.20;;;;;;5135609;28;20010;-71
2023/03/22 03:00:39;;;;;;;;;;;10.70;85.20;;;;;;5135773;28;19915;-71
2023/03/22 03:03:10;;;;;;;;;;;10.70;85.20;;;;;;5135667;28;20328;-71
2023/03/22 03:05:39;;;;;;;;;;;10.60;85.20;;;;;;5135623;28;19919;-71
2023/03/22 03:08:05;;;;;;;;;;;10.60;85.20;;;;;;5135725;28;19915;-71
2023/03/22 03:10:31;;;;;;;;;;;10.60;85.40;;;;;;5135505;28;19915;-71
2023/03/22 03:12:57;;;;;;;;;;;10.60;85.40;;;;;;5135451;28;19922;-71
2023/03/22 03:15:22;;;;;;;;;;;10.70;85.50;;;;;;5115392;28;20011;-71
2023/03/22 03:18:06;;;;;;;;;;;10.70;85.70;;;;;;5135245;28;20361;-71
2023/03/22 03:20:48;;;;;;;;;;;10.60;85.60;;;;;;5135295;28;19923;-71
2023/03/22 03:23:27;;;;;;;;;;;10.60;85.70;;;;;;5134205;27;19964;-71
2023/03/22 03:26:07;;;;;;;;;;;10.60;85.80;;;;;;5135231;28;19951;-71
2023/03/22 03:28:48;;;;;;;;;;;10.60;85.80;;;;;;5135235;28;19915;-71
2023/03/22 03:31:19;;;;;;;;;;;10.50;85.80;;;;;;5135182;28;19915;-71
2023/03/22 03:33:50;;;;;;;;;;;10.60;85.90;;;;;;5135219;28;19915;-71
2023/03/22 03:36:16;;;;;;;;;;;10.60;86.00;;;;;;5135136;28;19915;-71
2023/03/22 03:38:44;;;;;;;;;;;10.60;85.90;;;;;;5135192;28;19938;-71
2023/03/22 03:41:12;;;;;;;;;;;10.50;85.90;;;;;;5135473;28;20004;-71
2023/03/22 03:43:38;;;;;;;;;;;10.50;86.00;;;;;;5135160;28;19926;-71
2023/03/22 03:46:05;;;;;;;;;;;10.50;86.10;;;;;;5135148;28;20339;-71
2023/03/22 03:48:31;;;;;;;;;;;10.50;86.20;;;;;;5134952;28;19916;-71
2023/03/22 03:50:58;;;;;;;;;;;10.50;86.20;;;;;;5134935;28;19915;-71
2023/03/22 03:53:23;;;;;;;;;;;10.50;86.20;;;;;;5134964;28;19915;-71
2023/03/22 03:55:49;;;;;;;;;;;10.40;86.10;;;;;;5134812;28;19916;-71
2023/03/22 03:58:15;;;;;;;;;;;10.40;86.20;;;;;;5114425;28;19966;-71
2023/03/22 04:00:41;;;;;;;;;;;10.50;86.40;;;;;;5134712;28;19931;-71
2023/03/22 04:03:06;;;;;;;;;;;10.40;86.30;;;;;;5134695;28;20288;-72
2023/03/22 04:05:32;;;;;;;;;;;10.40;86.30;;;;;;5134571;28;19960;-71
2023/03/22 04:07:57;;;;;;;;;;;10.50;86.30;;;;;;5134568;28;19923;-71
2023/03/22 04:10:23;;;;;;;;;;;10.40;86.30;;;;;;5134623;28;19919;-71
2023/03/22 04:12:48;;;;;;;;;;;10.50;86.30;;;;;;5116427;28;19915;-71
2023/03/22 04:15:14;;;;;;;;;;;10.40;86.40;;;;;;5134658;28;20010;-71
2023/03/22 04:17:40;;;;;;;;;;;10.40;86.40;;;;;;5134605;28;20326;-71
2023/03/22 04:20:08;;;;;;;;;;;10.50;86.40;;;;;;5114472;28;19916;-71
2023/03/22 04:22:37;;;;;;;;;;;10.40;86.30;;;;;;5114007;28;20026;-71
2023/03/22 04:25:04;;;;;;;;;;;10.40;86.40;;;;;;5134660;28;19915;-71
2023/03/22 04:27:30;;;;;;;;;;;10.40;86.40;;;;;;5134508;28;19963;-71
2023/03/22 04:29:56;;;;;;;;;;;10.40;86.60;;;;;;5134355;28;19923;-71
2023/03/22 04:32:25;;;;;;;;;;;10.40;86.60;;;;;;5134381;28;19922;-71
2023/03/22 04:34:51;;;;;;;;;;;10.40;86.60;;;;;;5115536;28;19915;-71
2023/03/22 04:37:18;;;;;;;;;;;10.40;86.70;;;;;;5115044;28;20010;-71
2023/03/22 04:39:44;;;;;;;;;;;10.40;86.70;;;;;;5134039;28;19915;-71
2023/03/22 04:42:10;;;;;;;;;;;10.30;86.70;;;;;;5134146;28;20360;-71
2023/03/22 04:44:35;;;;;;;;;;;10.40;86.70;;;;;;5134001;28;20006;-71
2023/03/22 04:47:01;;;;;;;;;;;10.30;86.70;;;;;;5134039;28;19911;-71
2023/03/22 04:49:27;;;;;;;;;;;10.30;86.70;;;;;;5134121;28;19912;-71
2023/03/22 04:51:53;;;;;;;;;;;10.30;86.80;;;;;;5134565;28;20379;-71
2023/03/22 04:54:18;;;;;;;;;;;10.20;86.80;;;;;;5133982;28;20261;-71
2023/03/22 04:56:44;;;;;;;;;;;10.20;86.80;;;;;;5134208;28;19941;-71
2023/03/22 04:59:09;;;;;;;;;;;10.20;86.80;;;;;;5133924;28;19922;-71
2023/03/22 05:01:36;;;;;;;;;;;10.20;86.90;;;;;;5134079;28;19922;-71
2023/03/22 05:04:02;;;;;;;;;;;10.20;86.90;;;;;;5134130;28;19919;-71
2023/03/22 05:06:27;;;;;;;;;;;10.10;86.90;;;;;;5134180;28;19975;-71
2023/03/22 05:08:53;;;;;;;;;;;10.20;87.00;;;;;;5134070;28;19915;-71
2023/03/22 05:11:19;;;;;;;;;;;10.10;86.90;;;;;;5134144;28;19915;-71
2023/03/22 05:13:44;;;;;;;;;;;10.20;87.00;;;;;;5134091;28;19922;-71
2023/03/22 05:16:11;;;;;;;;;;;10.10;86.90;;;;;;5133905;28;20003;-71
2023/03/22 05:18:41;;;;;;;;;;;10.20;87.10;;;;;;5133821;28;19915;-71
2023/03/22 05:21:10;;;;;;;;;;;10.10;87.00;;;;;;5133924;28;19923;-71
2023/03/22 05:23:36;;;;;;;;;;;10.10;87.00;;;;;;5134010;28;19915;-71
2023/03/22 05:26:03;;;;;;;;;;;10.10;86.90;;;;;;5115378;28;19998;-71
2023/03/22 05:28:28;;;;;;;;;;;10.10;86.90;;;;;;5133765;28;19924;-71
2023/03/22 05:30:54;;;;;;;;;;;10.10;86.90;;;;;;5133611;28;20307;-71
2023/03/22 05:33:20;;;;;;;;;;;10.10;86.90;;;;;;5133966;28;19915;-71
2023/03/22 05:35:46;;;;;;;;;;;10.10;86.90;;;;;;5133833;28;19922;-71
2023/03/22 05:38:12;;;;;;;;;;;10.10;87.00;;;;;;5133521;28;19920;-71
2023/03/22 05:40:37;;;;;;;;;;;10.00;87.00;;;;;;5115284;28;20353;-71
2023/03/22 05:43:03;;;;;;;;;;;10.10;87.00;;;;;;5133441;28;19922;-71
2023/03/22 05:45:28;;;;;;;;;;;10.00;87.00;;;;;;5114211;28;19916;-71
2023/03/22 05:47:54;;;;;;;;;;;10.00;87.00;;;;;;5137102;28;19923;-71
2023/03/22 05:50:21;;;;;;;;;;;10.00;87.10;;;;;;5137228;28;20353;-71
2023/03/22 05:52:47;;;;;;;;;;;10.00;87.10;;;;;;5137356;28;19916;-71
2023/03/22 05:55:13;;;;;;;;;;;10.00;87.20;;;;;;5117455;28;19922;-71
2023/03/22 05:57:39;;;;;;;;;;;10.00;87.20;;;;;;5137084;28;19919;-71
2023/03/22 06:00:12;;;;;;;;;;;10.00;87.20;;;;;;5101688;28;19923;-71
2023/03/22 06:02:39;;;;;;;;;;;10.10;87.20;;;;;;5136986;28;19922;-71
2023/03/22 06:05:05;;;;;;;;;;;10.00;87.10;;;;;;5118533;28;19915;-71
2023/03/22 06:07:30;;;;;;;;;;;10.00;87.10;;;;;;5117610;28;19916;-71
2023/03/22 06:09:56;;;;;;;;;;;10.00;87.00;;;;;;5137524;28;20432;-71
2023/03/22 06:12:23;;;;;;;;;;;10.00;87.00;;;;;;5136846;28;19923;-71
2023/03/22 06:14:49;;;;;;;;;;;10.00;87.00;;;;;;5136823;28;20356;-71
2023/03/22 06:17:15;;;;;;;;;;;10.10;87.00;;;;;;5136829;28;19969;-70
2023/03/22 06:19:41;;;;;;;;;;;10.00;86.90;;;;;;5136736;28;19915;-71
2023/03/22 06:22:06;;;;;;;;;;;10.00;87.00;;;;;;5136697;28;20291;-71
2023/03/22 06:24:32;;;;;;;;;;;10.10;87.10;;;;;;5136816;28;19921;-71
2023/03/22 06:26:57;;;;;;;;;;;10.00;87.00;;;;;;5136741;28;19915;-71
2023/03/22 06:29:23;;;;;;;;;;;10.00;87.00;;;;;;5136734;28;19919;-71
2023/03/22 06:31:48;;;;;;;;;;;9.90;87.00;;;;;;5136590;28;19922;-71
2023/03/22 06:34:14;;;;;;;;;;;10.00;87.00;;;;;;5136470;28;19922;-71
2023/03/22 06:36:41;;;;;;;;;;;10.00;86.90;;;;;;5136484;28;19927;-71
2023/03/22 06:39:07;;;;;;;;;;;10.00;87.00;;;;;;5136444;28;19915;-71
2023/03/22 06:41:32;;;;;;;;;;;10.00;86.90;;;;;;5136465;28;19915;-71
2023/03/22 06:43:58;;;;;;;;;;;10.00;86.90;;;;;;5136289;28;19922;-71
2023/03/22 06:46:23;;;;;;;;;;;10.00;86.90;;;;;;5136198;28;20010;-71
2023/03/22 06:48:49;;;;;;;;;;;9.90;86.90;;;;;;5136300;28;19916;-70
2023/03/22 06:51:15;;;;;;;;;;;10.10;86.90;;;;;;5136207;28;19918;-70
2023/03/22 06:53:40;;;;;;;;;;;10.10;86.80;;;;;;5136115;28;19920;-69
2023/03/22 06:56:06;;;;;;;;;;;10.10;86.80;;;;;;5135987;28;19908;-69
2023/03/22 06:58:31;;;;;;;;;;;10.20;86.80;;;;;;5135953;27;19915;-70
2023/03/22 07:00:57;;;;;;;;;;;10.30;86.70;;;;;;5136667;28;19923;-70
2023/03/22 07:03:23;;;;;;;;;;;10.30;86.50;;;;;;5136145;28;19922;-70
2023/03/22 07:05:48;;;;;;;;;;;10.40;86.40;;;;;;5136097;28;20068;-70
2023/03/22 07:08:14;;;;;;;;;;;10.40;86.20;;;;;;5135998;28;19915;-69
2023/03/22 07:10:41;;;;;;;;;;;10.50;86.10;;;;;;5136099;28;19916;-69
2023/03/22 07:13:06;;;;;;;;;;;10.60;86.00;;;;;;5135840;28;19915;-70
2023/03/22 07:15:33;;;;;;;;;;;10.60;85.90;;;;;;5135831;28;19979;-70
2023/03/22 07:17:59;;;;;;;;;;;10.70;86.40;;;;;;5135699;28;19919;-70
2023/03/22 07:20:25;;;;;;;;;;;10.80;85.60;;;;;;5135733;28;19915;-70
2023/03/22 07:22:50;;;;;;;;;;;10.70;85.50;;;;;;5135700;28;19922;-71
2023/03/22 07:25:16;;;;;;;;;;;10.80;85.40;;;;;;5100241;28;19988;-69
2023/03/22 07:27:41;;;;;;;;;;;10.90;86.00;;;;;;5135328;28;20370;-69
2023/03/22 07:30:07;;;;;;;;;;;11.00;85.30;;;;;;5135980;28;19915;-70
2023/03/22 07:32:33;;;;;;;;;;;11.00;85.20;;;;;;5136100;28;19988;-70
2023/03/22 07:34:58;;;;;;;;;;;11.00;85.10;;;;;;5135547;28;19919;-71
2023/03/22 07:37:24;;;;;;;;;;;11.10;85.10;;;;;;5135262;28;20388;-71
2023/03/22 07:39:50;;;;;;;;;;;11.10;85.10;;;;;;5117310;28;19960;-70
2023/03/22 07:42:15;;;;;;;;;;;11.10;85.10;;;;;;5135645;28;19987;-71
2023/03/22 07:44:41;;;;;;;;;;;11.00;85.10;;;;;;5135449;28;20453;-70
2023/03/22 07:47:06;;;;;;;;;;;11.00;85.20;;;;;;5135942;28;19922;-71
2023/03/22 07:49:32;;;;;;;;;;;11.00;85.20;;;;;;5115572;28;20021;-70
2023/03/22 07:51:57;;;;;;;;;;;11.10;85.30;;;;;;5135142;28;20372;-70
2023/03/22 07:54:23;;;;;;;;;;;11.10;85.30;;;;;;5116195;28;19912;-70
2023/03/22 07:56:48;;;;;;;;;;;11.10;85.30;;;;;;5116893;28;20382;-69
2023/03/22 07:59:15;;;;;;;;;;;11.00;85.30;;;;;;5114765;28;19922;-71
2023/03/22 08:01:41;;;;;;;;;;;11.10;85.20;;;;;;5116346;28;19916;-69
2023/03/22 08:04:06;;;;;;;;;;;11.20;85.20;;;;;;5098644;28;20387;-70
2023/03/22 08:06:32;;;;;;;;;;;11.20;85.10;;;;;;5135552;28;19919;-70
2023/03/22 08:08:58;;;;;;;;;;;11.30;85.10;;;;;;5134343;27;19915;-70
2023/03/22 08:11:23;;;;;;;;;;;11.20;85.00;;;;;;5134704;28;19919;-69
2023/03/22 08:13:49;;;;;;;;;;;11.30;85.00;;;;;;5114806;28;19915;-70
2023/03/22 08:16:15;;;;;;;;;;;11.40;85.00;;;;;;5116577;28;19946;-70
2023/03/22 08:18:41;;;;;;;;;;;11.40;84.80;;;;;;5098662;28;19943;-69
2023/03/22 08:21:06;;;;;;;;;;;11.40;84.80;;;;;;5099615;28;19922;-71
2023/03/22 08:23:32;;;;;;;;;;;11.50;84.80;;;;;;5134857;28;20260;-71
2023/03/22 08:25:58;;;;;;;;;;;11.50;84.80;;;;;;5134741;28;20342;-70
2023/03/22 08:28:23;;;;;;;;;;;11.60;84.60;;;;;;5114980;28;19980;-70
2023/03/22 08:30:49;;;;;;;;;;;11.60;84.50;;;;;;5135174;28;19922;-70
2023/03/22 08:33:15;;;;;;;;;;;11.60;84.40;;;;;;5134678;28;19915;-71
2023/03/22 08:35:41;;;;;;;;;;;11.70;84.30;;;;;;5114940;28;19951;-71
2023/03/22 08:38:06;;;;;;;;;;;11.70;84.20;;;;;;5114151;28;19920;-70
2023/03/22 08:40:32;;;;;;;;;;;11.80;84.20;;;;;;5116263;28;19915;-71
2023/03/22 08:42:58;;;;;;;;;;;11.80;84.10;;;;;;5114957;28;19916;-71
2023/03/22 08:45:24;;;;;;;;;;;11.80;84.00;;;;;;5114238;28;20014;-70
2023/03/22 08:47:49;;;;;;;;;;;11.90;84.00;;;;;;5115677;28;19946;-70
2023/03/22 08:50:15;;;;;;;;;;;11.80;83.90;;;;;;5134172;28;19916;-70
2023/03/22 08:52:40;;;;;;;;;;;12.00;83.90;;;;;;5134230;28;20387;-70
2023/03/22 08:55:07;;;;;;;;;;;12.00;83.70;;;;;;5134249;28;19965;-70
2023/03/22 08:57:33;;;;;;;;;;;12.00;83.60;;;;;;5114978;28;20437;-69
2023/03/22 08:59:59;;;;;;;;;;;12.10;83.40;;;;;;5134888;28;19915;-70
2023/03/22 09:02:25;;;;;;;;;;;12.10;83.10;;;;;;5134712;28;20387;-70
2023/03/22 09:04:51;;;;;;;;;;;12.20;83.10;;;;;;5134162;28;19929;-72
2023/03/22 09:07:19;;;;;;;;;;;12.40;83.10;;;;;;5134041;28;19915;-71
2023/03/22 09:09:44;;;;;;;;;;;12.40;82.90;;;;;;5134122;28;20361;-70
2023/03/22 09:12:10;;;;;;;;;;;12.50;82.70;;;;;;5134066;28;20019;-72
2023/03/22 09:14:36;;;;;;;;;;;12.50;83.10;;;;;;5114700;28;19963;-71
2023/03/22 09:17:01;;;;;;;;;;;12.50;82.30;;;;;;5133793;28;19920;-71
2023/03/22 09:19:27;;;;;;;;;;;12.50;82.30;;;;;;5133944;28;20364;-71
2023/03/22 09:21:53;;;;;;;;;;;12.50;82.30;;;;;;5132747;27;20329;-73
2023/03/22 09:24:19;;;;;;;;;;;12.70;82.30;;;;;;5133846;28;19923;-71
2023/03/22 09:26:45;;;;;;;;;;;12.70;82.00;;;;;;5133786;28;19918;-69
2023/03/22 09:29:11;;;;;;;;;;;12.70;81.80;;;;;;5114807;28;20010;-70
2023/03/22 09:31:36;;;;;;;;;;;12.70;81.50;;;;;;5133630;28;20321;-70
2023/03/22 09:34:02;;;;;;;;;;;12.70;81.50;;;;;;5133559;28;19916;-69
2023/03/22 09:36:27;;;;;;;;;;;12.70;81.30;;;;;;5114686;28;19928;-69
2023/03/22 09:38:53;;;;;;;;;;;12.70;81.40;;;;;;5133565;28;19922;-70
2023/03/22 09:41:36;;;;;;;;;;;12.80;81.30;;;;;;5133700;28;19915;-70
2023/03/22 09:44:04;;;;;;;;;;;12.80;81.20;;;;;;5133247;28;19912;-70
2023/03/22 09:46:32;;;;;;;;;;;12.70;81.20;;;;;;5115042;28;20369;-70
2023/03/22 09:49:00;;;;;;;;;;;12.70;81.20;;;;;;5134119;28;19965;-70
2023/03/22 09:51:37;;;;;;;;;;;12.60;81.20;;;;;;5133709;28;19922;-71
2023/03/22 09:54:02;;;;;;;;;;;12.60;81.40;;;;;;5133347;28;19919;-71
2023/03/22 09:56:30;;;;;;;;;;;12.60;81.50;;;;;;5133423;28;20322;-71
2023/03/22 09:59:03;;;;;;;;;;;12.50;81.60;;;;;;5133514;28;19926;-70
2023/03/22 10:01:36;;;;;;;;;;;12.50;81.70;;;;;;5133352;28;19915;-70
2023/03/22 10:04:25;;;;;;;;;;;12.40;81.70;;;;;;5133330;28;20410;-71
2023/03/22 10:07:00;;;;;;;;;;;12.40;81.70;;;;;;5118610;28;20373;-72
2023/03/22 10:09:39;;;;;;;;;;;12.50;81.90;;;;;;5133708;28;19915;-70
2023/03/22 10:12:15;;;;;;;;;;;12.50;81.90;;;;;;5133121;28;19911;-70
2023/03/22 10:14:50;;;;;;;;;;;12.50;81.80;;;;;;5133203;28;19915;-70
2023/03/22 10:17:17;;;;;;;;;;;12.50;81.70;;;;;;5133053;28;19968;-72
2023/03/22 10:20:03;;;;;;;;;;;12.60;81.70;;;;;;5133162;28;20018;-71
2023/03/22 10:22:31;;;;;;;;;;;12.50;81.60;;;;;;5133183;28;19915;-72
2023/03/22 10:24:56;;;;;;;;;;;12.60;81.60;;;;;;5133266;28;19919;-71
2023/03/22 10:27:25;;;;;;;;;;;12.50;81.40;;;;;;5133004;28;20014;-71
2023/03/22 10:29:54;;;;;;;;;;;12.40;81.30;;;;;;5133119;28;20034;-71
2023/03/22 10:32:28;;;;;;;;;;;12.30;81.90;;;;;;5134042;27;19915;-71
2023/03/22 10:34:53;;;;;;;;;;;12.40;81.30;;;;;;5136566;28;20002;-71
2023/03/22 10:37:21;;;;;;;;;;;12.30;81.40;;;;;;5135399;28;20075;-70
2023/03/22 10:39:48;;;;;;;;;;;12.40;81.60;;;;;;5101032;28;19911;-71
2023/03/22 10:42:15;;;;;;;;;;;12.20;81.50;;;;;;5117972;28;20389;-71
2023/03/22 10:44:46;;;;;;;;;;;12.20;81.70;;;;;;5136306;28;19923;-72
2023/03/22 10:47:13;;;;;;;;;;;12.20;81.90;;;;;;5117874;28;19945;-73
2023/03/22 10:49:41;;;;;;;;;;;12.10;82.00;;;;;;5136642;28;20361;-72
2023/03/22 10:52:16;;;;;;;;;;;12.10;82.10;;;;;;5132454;28;20269;-71
2023/03/22 10:54:41;;;;;;;;;;;12.00;82.30;;;;;;5136441;28;19916;-70
2023/03/22 10:57:07;;;;;;;;;;;12.00;82.50;;;;;;5136125;28;19919;-72
2023/03/22 10:59:43;;;;;;;;;;;11.90;82.60;;;;;;5136066;28;19915;-71
2023/03/22 11:02:23;;;;;;;;;;;12.00;82.80;;;;;;5136099;28;20265;-71
2023/03/22 11:04:51;;;;;;;;;;;11.90;82.80;;;;;;5136019;28;20388;-71
2023/03/22 11:07:33;;;;;;;;;;;11.90;82.90;;;;;;5136061;28;19919;-70
2023/03/22 11:10:13;;;;;;;;;;;11.90;82.90;;;;;;5135986;28;19915;-72
2023/03/22 11:12:46;;;;;;;;;;;11.90;83.00;;;;;;5135945;28;19965;-70
2023/03/22 11:15:22;;;;;;;;;;;11.90;83.20;;;;;;5135886;28;19919;-70
2023/03/22 11:17:48;;;;;;;;;;;11.90;83.20;;;;;;5135725;28;19969;-70
2023/03/22 11:20:15;;;;;;;;;;;11.90;83.30;;;;;;5135729;28;19919;-71
2023/03/22 11:22:43;;;;;;;;;;;11.90;83.40;;;;;;5135977;28;19915;-71
2023/03/22 11:25:14;;;;;;;;;;;11.80;83.40;;;;;;5135760;28;19916;-70
2023/03/22 11:27:48;;;;;;;;;;;11.70;83.50;;;;;;5135553;28;19915;-70
2023/03/22 11:30:22;;;;;;;;;;;11.70;83.60;;;;;;5135427;28;20003;-70
2023/03/22 11:32:48;;;;;;;;;;;11.70;83.70;;;;;;5135106;28;20306;-70
2023/03/22 11:35:22;;;;;;;;;;;11.70;83.70;;;;;;5115222;28;20101;-70
2023/03/22 11:37:50;;;;;;;;;;;11.70;83.80;;;;;;5115550;28;20441;-70
2023/03/22 11:40:17;;;;;;;;;;;11.80;83.90;;;;;;5135535;28;20009;-69
2023/03/22 11:42:43;;;;;;;;;;;11.70;83.90;;;;;;5135606;28;19915;-69
2023/03/22 11:45:13;;;;;;;;;;;11.90;83.90;;;;;;5134403;27;19964;-69
2023/03/22 11:47:39;;;;;;;;;;;11.80;83.90;;;;;;5116259;28;19916;-69
2023/03/22 11:50:06;;;;;;;;;;;11.80;83.90;;;;;;5135328;28;19998;-69
2023/03/22 11:52:31;;;;;;;;;;;11.80;83.90;;;;;;5116985;28;19962;-69
2023/03/22 11:54:57;;;;;;;;;;;11.80;83.90;;;;;;5135262;28;19922;-70
2023/03/22 11:57:25;;;;;;;;;;;11.90;83.90;;;;;;5135187;28;19920;-69
2023/03/22 12:00:10;;;;;;;;;;;11.90;83.90;;;;;;5135148;28;20007;-69
2023/03/22 12:02:40;;;;;;;;;;;11.90;83.90;;;;;;5135202;28;19916;-69
2023/03/22 12:05:16;;;;;;;;;;;11.90;83.90;;;;;;5135186;28;19915;-69
2023/03/22 12:07:42;;;;;;;;;;;11.90;83.90;;;;;;5135184;28;19920;-69
2023/03/22 12:10:18;;;;;;;;;;;11.90;83.80;;;;;;5135125;28;19998;-70
2023/03/22 12:12:48;;;;;;;;;;;11.90;83.80;;;;;;5135016;28;19923;-69
2023/03/22 12:15:18;;;;;;;;;;;12.10;83.90;;;;;;5117013;28;19952;-69
2023/03/22 12:17:47;;;;;;;;;;;11.90;83.90;;;;;;5134832;28;20356;-71
2023/03/22 12:20:33;;;;;;;;;;;12.00;84.00;;;;;;5134992;28;19916;-69
2023/03/22 12:22:58;;;;;;;;;;;12.00;84.10;;;;;;5134676;28;20071;-69
2023/03/22 12:25:25;;;;;;;;;;;11.90;84.00;;;;;;5134672;28;20002;-69
2023/03/22 12:27:54;;;;;;;;;;;12.00;84.00;;;;;;5134835;28;19923;-69
2023/03/22 12:30:22;;;;;;;;;;;11.90;84.00;;;;;;5134694;28;19916;-69
2023/03/22 12:32:51;;;;;;;;;;;11.90;84.00;;;;;;5134634;28;19976;-69
2023/03/22 12:35:19;;;;;;;;;;;12.00;84.10;;;;;;5134747;28;19972;-69
2023/03/22 12:37:47;;;;;;;;;;;12.00;84.10;;;;;;5134511;28;19919;-69
2023/03/22 12:40:18;;;;;;;;;;;12.00;84.10;;;;;;5134662;28;19915;-69
2023/03/22 12:42:49;;;;;;;;;;;11.90;84.00;;;;;;5114977;28;19916;-68
2023/03/22 12:45:18;;;;;;;;;;;12.00;84.00;;;;;;5135187;28;19915;-68
2023/03/22 12:47:50;;;;;;;;;;;12.00;84.00;;;;;;5134612;28;20014;-68
2023/03/22 12:50:19;;;;;;;;;;;11.90;83.90;;;;;;5134390;28;19916;-67
2023/03/22 12:52:49;;;;;;;;;;;12.00;84.00;;;;;;5097638;28;19923;-68
2023/03/22 12:55:26;;;;;;;;;;;12.10;84.00;;;;;;5097344;28;20372;-69
2023/03/22 12:57:53;;;;;;;;;;;12.10;83.90;;;;;;5115247;28;20381;-68
2023/03/22 13:00:23;;;;;;;;;;;12.10;83.80;;;;;;5097937;28;19916;-69
2023/03/22 13:02:55;;;;;;;;;;;12.00;83.70;;;;;;5097973;28;19958;-68
2023/03/22 13:05:25;;;;;;;;;;;12.10;83.80;;;;;;5134101;28;19919;-69
2023/03/22 13:07:52;;;;;;;;;;;12.00;83.70;;;;;;5098909;28;19957;-68
2023/03/22 13:10:40;;;;;;;;;;;12.10;83.80;;;;;;5114221;28;20331;-68
2023/03/22 13:13:11;;;;;;;;;;;12.10;83.80;;;;;;5100555;28;20416;-69
2023/03/22 13:15:40;;;;;;;;;;;12.00;83.90;;;;;;5115226;28;19923;-69
2023/03/22 13:18:22;;;;;;;;;;;12.10;84.00;;;;;;5134058;28;19942;-68
2023/03/22 13:21:06;;;;;;;;;;;12.10;84.00;;;;;;5130740;28;20380;-69
2023/03/22 13:23:32;;;;;;;;;;;12.10;83.90;;;;;;5111636;28;19911;-69
2023/03/22 13:25:59;;;;;;;;;;;12.10;83.90;;;;;;5133799;28;20275;-69
2023/03/22 13:28:25;;;;;;;;;;;12.10;83.90;;;;;;5133650;28;19915;-69
2023/03/22 13:30:52;;;;;;;;;;;12.10;83.90;;;;;;5115600;28;19954;-69
2023/03/22 13:33:36;;;;;;;;;;;12.00;83.80;;;;;;5129984;28;20390;-69
2023/03/22 13:36:05;;;;;;;;;;;12.10;83.90;;;;;;5114788;28;19911;-69
2023/03/22 13:38:50;;;;;;;;;;;12.10;83.90;;;;;;5133494;28;19920;-69
2023/03/22 13:41:20;;;;;;;;;;;12.10;83.90;;;;;;5114729;28;20399;-69
2023/03/22 13:43:50;;;;;;;;;;;12.20;83.90;;;;;;5115088;28;19946;-68
2023/03/22 13:46:28;;;;;;;;;;;12.10;83.90;;;;;;5098023;28;20843;-68
2023/03/22 13:49:13;;;;;;;;;;;12.10;83.90;;;;;;5115515;28;20356;-70
2023/03/22 13:51:39;;;;;;;;;;;12.10;83.90;;;;;;5133627;28;19922;-70
2023/03/22 13:54:08;;;;;;;;;;;12.10;83.80;;;;;;5133468;28;20361;-67
2023/03/22 13:56:53;;;;;;;;;;;12.10;83.80;;;;;;5133380;28;19964;-69
2023/03/22 13:59:21;;;;;;;;;;;12.10;83.80;;;;;;5133326;28;20489;-69
2023/03/22 14:01:50;;;;;;;;;;;12.20;83.80;;;;;;5115468;28;19922;-68
2023/03/22 14:04:21;;;;;;;;;;;12.20;83.80;;;;;;5133230;28;19923;-68
2023/03/22 14:06:51;;;;;;;;;;;12.20;83.80;;;;;;5114195;28;19924;-68
2023/03/22 14:09:23;;;;;;;;;;;12.20;83.90;;;;;;5137462;28;19915;-69
2023/03/22 14:11:52;;;;;;;;;;;12.20;83.80;;;;;;5100521;28;19916;-68
2023/03/22 14:14:19;;;;;;;;;;;12.20;83.80;;;;;;5100315;28;19922;-68
2023/03/22 14:16:48;;;;;;;;;;;12.20;83.80;;;;;;5136711;28;19972;-69
2023/03/22 14:19:17;;;;;;;;;;;12.20;83.80;;;;;;5116505;28;19916;-68
2023/03/22 14:21:46;;;;;;;;;;;12.20;83.80;;;;;;5137008;28;20368;-68
2023/03/22 14:24:14;;;;;;;;;;;12.20;83.80;;;;;;5100883;28;20022;-68